RJFC(METAR)
02/18 15:00
RJFC 180600Z 12004KT CAVOK 16/08 Q1023 RMK A3021=
戻る
トップページへ戻る
IMOC Co,.Ltd.